Time;durP1;ratioP1;P1;durP2;ratioP2;P2;SDS_P1;SDS_P2;PMS_P1;PMS_P2;Temp;Humidity;BMP_temperature;BMP_pressure;BME280_temperature;BME280_humidity;BME280_pressure;Samples;Min_cycle;Max_cycle;Signal;HPM_P1;HPM_P2
2023/10/11 00:02:57;;;;;;;6.00;4.88;;;;;;;-145.63;53.48;39386.06;5106505;28;20285;-69
2023/10/11 00:05:24;;;;;;;7.13;4.93;;;;;;;-145.63;53.53;38805.22;5106275;28;20035;-69
2023/10/11 00:07:54;;;;;;;7.00;5.13;;;;;;;-145.63;53.53;39339.13;5106463;28;20019;-69
2023/10/11 00:10:22;;;;;;;6.75;4.90;;;;;;;-145.63;53.28;39364.53;5105943;28;20023;-69
2023/10/11 00:12:50;;;;;;;8.95;5.28;;;;;;;-145.63;53.40;39356.72;5106244;28;20050;-68
2023/10/11 00:15:16;;;;;;;5.68;4.80;;;;;;;-145.63;53.15;39346.94;5106020;28;20353;-68
2023/10/11 00:17:46;;;;;;;6.47;4.97;;;;;;;-145.63;53.09;39356.72;5106235;28;20097;-69
2023/10/11 00:20:28;;;;;;;5.78;4.85;;;;;;;-145.63;53.16;39348.88;5105669;28;20024;-70
2023/10/11 00:22:55;;;;;;;5.93;4.82;;;;;;;-145.63;53.70;39343.03;5105870;28;20342;-70
2023/10/11 00:25:25;;;;;;;8.23;5.65;;;;;;;-145.63;53.80;39358.66;5105558;28;20027;-69
2023/10/11 00:27:58;;;;;;;6.07;5.13;;;;;;;-145.63;53.63;39362.59;5105584;28;20051;-68
2023/10/11 00:30:25;;;;;;;6.70;5.60;;;;;;;-145.63;53.79;39343.03;5105531;28;20043;-69
2023/10/11 00:32:54;;;;;;;7.28;5.47;;;;;;;-145.63;53.81;39362.59;5105837;28;20090;-68
2023/10/11 00:35:20;;;;;;;7.63;5.85;;;;;;;-145.63;53.95;39344.97;5112966;28;20312;-68
2023/10/11 00:37:49;;;;;;;8.02;5.68;;;;;;;-145.63;53.48;39499.50;5119720;28;20039;-70
2023/10/11 00:40:25;;;;;;;6.53;5.10;;;;;;;-145.63;53.53;39352.81;5115558;28;20173;-70
2023/10/11 00:42:57;;;;;;;6.32;4.82;;;;;;;-145.63;53.23;39321.50;5089638;28;20052;-69
2023/10/11 00:45:23;;;;;;;;;;;;;;;-145.63;53.32;39329.34;5085430;28;20047;-70
2023/10/11 00:47:52;;;;;;;5.35;4.85;;;;;;;-145.63;53.40;39362.59;5085121;28;20177;-69
2023/10/11 00:50:21;;;;;;;6.43;4.95;;;;;;;-145.63;53.57;39360.63;5084818;28;20115;-68
2023/10/11 00:52:48;;;;;;;5.38;4.40;;;;;;;-145.63;53.67;39356.72;5084974;28;20031;-68
2023/10/11 00:55:24;;;;;;;6.47;4.80;;;;;;;-145.63;53.42;39329.34;5084956;28;20021;-68
2023/10/11 00:57:53;;;;;;;5.57;5.05;;;;;;;-145.63;53.61;39352.81;5085006;28;20091;-69
2023/10/11 01:00:23;;;;;;;5.75;4.45;;;;;;;-145.63;53.65;39368.44;5084658;28;20024;-69
2023/10/11 01:02:52;;;;;;;5.25;4.68;;;;;;;-145.63;53.73;39344.97;5084822;28;20036;-68
2023/10/11 01:05:19;;;;;;;5.47;4.40;;;;;;;-145.63;53.17;39341.06;5084651;28;20027;-69
2023/10/11 01:07:45;;;;;;;4.95;4.45;;;;;;;-145.63;53.79;39354.75;5084829;28;20312;-69
2023/10/11 01:10:13;;;;;;;6.55;4.75;;;;;;;-145.63;53.90;39366.50;5083448;28;20364;-67
2023/10/11 01:12:41;;;;;;;5.10;4.32;;;;;;;-145.63;53.51;39419.31;5084511;28;20024;-68
2023/10/11 01:15:22;;;;;;;6.20;4.05;;;;;;;-145.63;53.57;39389.97;5084615;28;20265;-68
2023/10/11 01:17:47;;;;;;;5.97;4.93;;;;;;;-145.63;53.22;39337.16;5083294;28;20024;-68
2023/10/11 01:20:13;;;;;;;5.10;4.38;;;;;;;-145.63;53.22;39346.94;5084335;28;20468;-68
2023/10/11 01:22:43;;;;;;;6.15;4.45;;;;;;;-145.63;53.11;39358.66;5084486;28;20317;-68
2023/10/11 01:25:18;;;;;;;5.15;4.60;;;;;;;-145.63;52.99;39346.94;5084236;28;20207;-67
2023/10/11 01:27:47;;;;;;;5.47;4.20;;;;;;;-145.63;53.48;39360.63;5084270;28;20305;-67
2023/10/11 01:30:14;;;;;;;5.72;4.43;;;;;;;-145.63;53.43;39319.56;5084024;28;20036;-68
2023/10/11 01:32:44;;;;;;;4.65;4.15;;;;;;;-145.63;53.05;39348.88;5082988;28;20093;-67
2023/10/11 01:35:19;;;;;;;4.93;3.90;;;;;;;-145.63;52.43;39382.13;5084052;28;20028;-68
2023/10/11 01:37:46;;;;;;;4.70;4.05;;;;;;;-145.63;52.90;39354.75;5087507;28;20031;-67
2023/10/11 01:40:21;;;;;;;4.43;4.03;;;;;;;-145.63;53.19;39386.06;5108294;28;20039;-69
2023/10/11 01:42:51;;;;;;;8.32;4.13;;;;;;;-145.63;52.74;39344.97;5107196;28;20032;-68
2023/10/11 01:45:18;;;;;;;4.20;3.80;;;;;;;-145.63;52.85;39341.06;5104177;28;20031;-68
2023/10/11 01:47:47;;;;;;;5.63;4.20;;;;;;;-145.63;53.02;39360.63;5103630;28;20044;-68
2023/10/11 01:50:16;;;;;;;4.25;3.83;;;;;;;-145.63;52.61;39337.16;5103329;28;20028;-68
2023/10/11 01:52:43;;;;;;;5.38;4.22;;;;;;;-145.63;52.38;39327.38;5084024;28;20024;-70
2023/10/11 01:55:13;;;;;;;6.07;4.15;;;;;;;-145.63;52.72;39374.31;5082621;28;20087;-71
2023/10/11 01:57:41;;;;;;;4.38;3.78;;;;;;;-145.63;52.94;39344.97;5082555;28;20047;-69
2023/10/11 02:00:13;;;;;;;4.55;3.50;;;;;;;-145.63;52.83;39344.97;5083830;28;20051;-69
2023/10/11 02:02:58;;;;;;;4.13;3.50;;;;;;;-145.63;52.69;39360.63;5083627;28;20084;-68
2023/10/11 02:05:24;;;;;;;4.60;4.05;;;;;;;-145.63;52.58;39341.06;5083747;28;20028;-69
2023/10/11 02:07:50;;;;;;;5.40;4.38;;;;;;;-145.63;52.75;39341.06;5083696;28;20047;-69
2023/10/11 02:10:27;;;;;;;5.35;3.95;;;;;;;-145.63;52.65;39335.19;5083336;28;20031;-71
2023/10/11 02:12:57;;;;;;;4.30;3.90;;;;;;;-145.63;53.11;39346.94;5082503;28;20033;-70
2023/10/11 02:15:29;;;;;;;6.90;4.22;;;;;;;-145.63;52.81;39380.19;5083580;28;20029;-69
2023/10/11 02:17:59;;;;;;;5.50;4.13;;;;;;;-145.63;52.92;39350.84;5083436;28;20118;-68
2023/10/11 02:20:25;;;;;;;5.63;4.05;;;;;;;-145.63;52.57;39321.50;5083241;28;20032;-68
2023/10/11 02:22:53;;;;;;;4.78;4.03;;;;;;;-145.63;52.88;39329.34;5083364;28;20044;-69
2023/10/11 02:25:19;;;;;;;5.75;4.20;;;;;;;-145.63;53.11;39327.38;5083378;28;20100;-69
2023/10/11 02:27:49;;;;;;;4.88;4.07;;;;;;;-145.63;53.00;39348.88;5083338;28;20338;-69
2023/10/11 02:30:20;;;;;;;5.20;4.00;;;;;;;-145.63;53.00;39337.16;5083158;28;20209;-71
2023/10/11 02:32:50;;;;;;;5.03;4.50;;;;;;;-145.63;53.15;39350.84;5083362;28;20020;-70
2023/10/11 02:35:18;;;;;;;6.65;4.72;;;;;;;-145.63;53.25;39335.19;5083165;28;20365;-69
2023/10/11 02:37:45;;;;;;;6.28;4.55;;;;;;;-145.63;53.16;39321.50;5086612;28;20049;-68
2023/10/11 02:40:22;;;;;;;4.43;3.75;;;;;;;-145.63;53.17;39321.50;5117402;28;20154;-68
2023/10/11 02:42:50;;;;;;;4.63;4.10;;;;;;;-145.63;52.98;39331.28;5099476;28;20286;-67
2023/10/11 02:45:19;;;;;;;4.88;4.13;;;;;;;-145.63;53.29;39350.84;5123634;28;20339;-67
2023/10/11 02:47:49;;;;;;;5.32;4.40;;;;;;;-145.63;53.29;39323.47;5119947;28;20031;-67
2023/10/11 02:50:15;;;;;;;4.72;4.15;;;;;;;-145.63;53.30;39337.16;5103069;28;20055;-67
2023/10/11 02:52:42;;;;;;;4.57;3.70;;;;;;;-145.63;53.73;39348.88;5102033;28;20296;-68
2023/10/11 02:55:21;;;;;;;5.03;4.20;;;;;;;-145.63;53.91;39372.34;5103270;28;20031;-69
2023/10/11 02:57:57;;;;;;;5.13;4.22;;;;;;;-145.63;53.50;39348.88;5103248;28;20020;-69
2023/10/11 03:00:23;;;;;;;7.57;4.53;;;;;;;-145.63;53.21;39329.34;5102991;28;20142;-69
2023/10/11 03:02:55;;;;;;;4.35;3.95;;;;;;;-145.63;53.23;39313.69;5107293;28;20019;-69
2023/10/11 03:05:27;;;;;;;6.20;4.35;;;;;;;-145.63;53.48;39337.16;5108532;28;20031;-69
2023/10/11 03:08:13;;;;;;;5.90;4.70;;;;;;;-145.63;53.80;39319.56;5124621;28;20027;-68
2023/10/11 03:10:53;;;;;;;6.20;4.70;;;;;;;-145.63;53.80;39348.88;5115977;28;20027;-68
2023/10/11 03:13:29;;;;;;;5.55;4.47;;;;;;;-145.63;53.51;39317.59;5127519;28;20125;-68
2023/10/11 03:15:57;;;;;;;5.78;4.57;;;;;;;-145.63;53.61;39380.19;5126333;28;20031;-68
2023/10/11 03:18:33;;;;;;;5.63;4.40;;;;;;;-145.63;53.61;39311.72;5108838;28;20051;-69
2023/10/11 03:21:09;;;;;;;5.88;4.93;;;;;;;-145.63;53.46;39360.63;5105958;28;20035;-69
2023/10/11 03:23:45;;;;;;;5.10;4.60;;;;;;;-145.63;53.54;39329.34;5105590;28;20216;-69
2023/10/11 03:26:31;;;;;;;6.18;4.35;;;;;;;-145.63;53.27;39329.34;5106592;28;20042;-69
2023/10/11 03:29:03;;;;;;;7.13;5.47;;;;;;;-145.63;53.84;39352.81;5106769;28;20020;-68
2023/10/11 03:31:34;;;;;;;6.47;4.78;;;;;;;-145.63;53.46;39321.50;5106654;28;20020;-68
2023/10/11 03:34:10;;;;;;;6.80;4.70;;;;;;;-145.63;53.53;39315.66;5105544;28;20026;-68
2023/10/11 03:36:43;;;;;;;8.85;5.03;;;;;;;-145.63;53.13;39344.97;5106595;28;20065;-67
2023/10/11 03:39:10;;;;;;;6.13;4.93;;;;;;;-145.63;53.34;39337.16;5115419;28;20044;-67
2023/10/11 03:41:44;;;;;;;5.60;4.60;;;;;;;-145.63;53.29;39296.09;5100922;28;20257;-67
2023/10/11 03:44:10;;;;;;;5.38;4.78;;;;;;;-145.63;53.37;39339.13;5107694;28;20292;-68
2023/10/11 03:46:38;;;;;;;5.28;4.70;;;;;;;-145.63;53.54;39337.16;5126883;28;20032;-68
2023/10/11 03:51:48;;;;;;;7.50;5.10;;;;;;;-145.63;53.58;39313.69;5106426;28;20057;-68
2023/10/11 03:54:24;;;;;;;6.32;5.18;;;;;;;-145.63;53.46;39321.50;5121109;28;20039;-68
2023/10/11 03:56:53;;;;;;;6.35;5.28;;;;;;;-145.63;53.44;39288.25;5126655;28;20039;-69
2023/10/11 03:59:26;;;;;;;8.52;5.50;;;;;;;-145.63;53.11;39305.88;5125302;28;20027;-68
2023/10/11 04:01:53;;;;;;;5.80;5.10;;;;;;;-145.63;53.21;39301.94;5125565;28;20023;-67
2023/10/11 04:04:22;;;;;;;6.93;5.28;;;;;;;-145.63;53.32;39309.78;5117569;28;20036;-66
2023/10/11 04:06:51;;;;;;;7.45;5.60;;;;;;;-145.63;53.64;39350.84;5114505;28;20082;-67
2023/10/11 04:09:37;;;;;;;7.55;5.50;;;;;;;-145.63;53.90;39341.06;5106520;28;20020;-66
2023/10/11 04:12:04;;;;;;;7.18;5.22;;;;;;;-145.63;53.90;39309.78;5125809;28;20030;-67
2023/10/11 04:14:42;;;;;;;8.25;5.20;;;;;;;-145.63;53.79;39327.38;5095143;28;20368;-67
2023/10/11 04:17:24;;;;;;;6.40;5.72;;;;;;;-145.63;53.82;39337.16;5114408;28;20027;-68
2023/10/11 04:20:18;;;;;;;10.82;6.65;;;;;;;-145.63;54.19;38523.66;5107895;28;20034;-68
2023/10/11 04:23:01;;;;;;;8.57;5.93;;;;;;;-145.63;54.24;39301.94;5106466;28;20123;-66
2023/10/11 04:25:28;;;;;;;9.68;6.07;;;;;;;-145.63;54.17;39321.50;5105756;28;20024;-66
2023/10/11 04:27:56;;;;;;;7.78;6.45;;;;;;;-145.63;54.17;39294.13;5105814;28;20035;-68
2023/10/11 04:30:41;;;;;;;9.80;6.78;;;;;;;-145.63;53.94;39298.03;5105129;28;20039;-67
2023/10/11 04:33:22;;;;;;;10.18;6.72;;;;;;;-145.63;54.25;39282.41;5104146;28;20340;-67
2023/10/11 04:36:02;;;;;;;7.87;6.97;;;;;;;-145.63;53.86;39114.22;5105608;28;20034;-68
2023/10/11 04:38:32;;;;;;;8.77;6.47;;;;;;;-145.63;54.26;39290.22;5109349;28;20039;-68
2023/10/11 04:41:02;;;;;;;11.00;7.22;;;;;;;-145.63;54.40;39294.13;5113461;28;20039;-67
2023/10/11 04:43:29;;;;;;;8.65;7.05;;;;;;;-145.63;54.28;39313.69;5084876;28;20217;-68
2023/10/11 04:46:13;;;;;;;9.95;7.15;;;;;;;-145.63;54.22;39329.34;5085004;28;20043;-68
2023/10/11 04:48:41;;;;;;;10.00;8.35;;;;;;;-145.63;54.62;39313.69;5083931;28;20225;-67
2023/10/11 04:59:06;;;;;;;10.80;7.32;;;;;;;-145.63;53.86;39290.22;5084509;28;20036;-68
2023/10/11 05:02:23;;;;;;;12.93;8.32;;;;;;;-145.63;53.71;39335.19;5084380;28;20032;-67
2023/10/11 05:04:31;;;;;;;10.48;7.93;;;;;;;-145.63;53.16;39303.91;5077646;28;20063;-67
2023/10/11 05:06:57;;;;;;;;;;;;;;;-145.63;53.25;39311.72;5104893;28;20359;-67
2023/10/11 05:09:30;;;;;;;12.10;7.65;;;;;;;-145.63;53.67;39303.91;5099449;28;19946;-67
2023/10/11 05:14:40;;;;;;;13.45;8.02;;;;;;;-145.63;53.91;39313.69;5084064;28;20032;-67
2023/10/11 05:20:05;;;;;;;8.65;6.80;;;;;;;-145.63;53.50;39286.31;5104414;28;20028;-68
2023/10/11 05:27:47;;;;;;;11.73;7.10;;;;;;;-145.63;52.94;39337.16;5104286;28;20027;-69
2023/10/11 05:30:16;;;;;;;10.43;6.70;;;;;;;-145.63;52.56;39286.31;5103132;28;20102;-68
2023/10/11 05:32:50;;;;;;;8.10;6.22;;;;;;;-145.63;52.68;39358.66;5104447;28;20024;-67
2023/10/11 05:35:24;;;;;;;8.57;6.20;;;;;;;-145.63;52.44;39270.66;5104090;28;20293;-67
2023/10/11 05:51:33;;;;;;;5.85;4.30;;;;;;;-145.63;51.66;39180.69;5103462;28;20023;-67
2023/10/11 05:54:07;;;;;;;6.03;4.57;;;;;;;-145.63;51.32;39344.97;5112652;28;20036;-68
2023/10/11 05:56:38;;;;;;;5.97;5.00;;;;;;;-145.63;51.69;39307.81;5124152;28;20059;-69
2023/10/11 05:59:05;;;;;;;6.13;4.13;;;;;;;-145.63;51.36;39276.53;5124407;28;20020;-68
2023/10/11 06:01:31;;;;;;;4.32;3.92;;;;;;;-145.63;51.56;39309.78;5122532;28;20106;-67
2023/10/11 06:04:02;;;;;;;5.68;3.80;;;;;;;-145.63;50.75;39303.91;5123982;28;20051;-67
2023/10/11 06:06:38;;;;;;;6.10;4.28;;;;;;;-145.63;50.68;39341.06;5123573;28;20269;-66
2023/10/11 06:09:05;;;;;;;7.38;3.88;;;;;;;-145.63;50.32;39298.03;5123790;28;20099;-66
2023/10/11 06:11:36;;;;;;;6.45;4.00;;;;;;;-145.63;49.90;39282.41;5123666;28;20318;-67
2023/10/11 06:14:04;;;;;;;9.50;3.70;;;;;;;-145.63;50.47;39317.59;5114839;28;20032;-67
2023/10/11 06:16:43;;;;;;;4.97;3.88;;;;;;;-145.63;49.97;39301.94;5111039;28;20052;-65
2023/10/11 06:19:18;;;;;;;6.43;3.70;;;;;;;-145.63;50.23;39219.81;5108370;28;20075;-66
2023/10/11 06:22:09;;;;;;;8.38;4.03;;;;;;;-145.63;49.65;39305.88;5103509;28;20024;-66
2023/10/11 06:24:39;;;;;;;6.22;3.70;;;;;;;-145.63;49.69;39294.13;5103206;28;20028;-68
2023/10/11 06:28:09;;;;;;;5.53;3.35;;;;;;;-145.63;49.71;39227.63;5103440;28;20062;-67
2023/10/11 06:30:06;;;;;;;6.78;3.80;;;;;;;-145.63;49.16;39192.44;5103404;28;20032;-69
2023/10/11 06:32:31;;;;;;;8.40;4.70;;;;;;;-145.63;47.53;39243.28;5098545;28;20201;-67
2023/10/11 06:34:57;;;;;;;8.32;4.18;;;;;;;-145.63;46.67;39215.91;5090672;28;20020;-67
2023/10/11 06:37:25;;;;;;;8.10;3.35;;;;;;;-145.63;44.79;39231.53;5091595;28;20021;-67
2023/10/11 06:42:21;;;;;;;8.52;3.35;;;;;;;-145.63;43.17;39268.72;5089877;28;20055;-68
2023/10/11 06:44:54;;;;;;;5.15;2.67;;;;;;;-145.63;43.40;39290.22;5086763;28;20246;-68
2023/10/11 06:47:21;;;;;;;5.90;3.20;;;;;;;-145.63;43.33;39251.09;5092990;28;20091;-69
2023/10/11 06:49:55;;;;;;;4.00;3.17;;;;;;;-145.63;42.22;39278.47;5094078;28;20028;-67
2023/10/11 06:52:25;;;;;;;3.97;3.13;;;;;;;-145.63;43.28;39298.03;5101212;28;20030;-67
2023/10/11 06:57:45;;;;;;;6.35;3.33;;;;;;;-145.63;42.83;39337.16;5092237;28;20127;-66
2023/10/11 07:02:50;;;;;;;6.68;3.05;;;;;;;-145.63;42.80;39329.34;5091253;28;20301;-66
2023/10/11 07:05:19;;;;;;;7.18;2.95;;;;;;;-145.63;42.29;39343.03;5092661;28;20084;-67
2023/10/11 07:07:48;;;;;;;7.00;3.70;;;;;;;-145.63;42.96;39296.09;5093517;28;20080;-67
2023/10/11 07:10:28;;;;;;;4.40;3.40;;;;;;;-145.63;42.83;39323.47;5095684;28;20024;-68
2023/10/11 07:13:12;;;;;;;4.30;3.13;;;;;;;-145.63;42.34;39305.88;5110371;28;20050;-66
2023/10/11 07:15:47;;;;;;;3.70;3.20;;;;;;;-145.63;41.70;39272.63;5120800;28;20077;-67
2023/10/11 07:18:27;;;;;;;6.60;3.33;;;;;;;-145.63;41.86;39391.91;5106590;28;20053;-68
2023/10/11 07:20:58;;;;;;;4.67;3.20;;;;;;;-145.63;42.73;39317.59;5102239;28;20024;-67
2023/10/11 07:23:35;;;;;;;4.57;2.90;;;;;;;-145.63;42.24;39307.81;5108850;28;20051;-67
2023/10/11 07:28:52;;;;;;;4.57;2.70;;;;;;;-145.63;42.49;39327.38;5122891;28;20043;-67
2023/10/11 07:31:32;;;;;;;5.72;3.10;;;;;;;-145.63;42.54;39391.91;5122225;28;20055;-66
2023/10/11 07:33:59;;;;;;;7.05;2.90;;;;;;;-145.63;42.58;39325.41;5121348;28;20032;-67
2023/10/11 07:36:25;;;;;;;4.35;2.92;;;;;;;-145.63;42.60;39325.41;5109145;28;20103;-67
2023/10/11 07:38:54;;;;;;;5.65;2.75;;;;;;;-145.63;42.54;39325.41;5115565;28;20040;-66
2023/10/11 07:41:28;;;;;;;3.55;2.85;;;;;;;-145.63;42.27;39327.38;5111576;28;20032;-66
2023/10/11 07:43:58;;;;;;;5.78;2.50;;;;;;;-145.63;42.58;39346.94;5116812;28;20031;-66
2023/10/11 07:46:24;;;;;;;6.90;2.42;;;;;;;-145.63;41.80;39245.25;5117104;28;20173;-67
2023/10/11 07:49:01;;;;;;;3.00;2.42;;;;;;;-145.63;42.10;39305.88;5123241;28;20035;-67
2023/10/11 07:51:30;;;;;;;5.60;2.90;;;;;;;-145.63;42.51;39350.84;5112272;27;20069;-66
2023/10/11 07:53:56;;;;;;;4.28;2.58;;;;;;;-145.63;42.64;39331.28;5114168;28;20035;-66
2023/10/11 07:56:22;;;;;;;4.07;2.33;;;;;;;-145.63;41.92;39339.13;5125573;28;20073;-66
2023/10/11 07:58:48;;;;;;;4.60;3.30;;;;;;;-145.63;42.64;39323.47;5126282;28;20019;-65
2023/10/11 08:01:30;;;;;;;7.43;2.40;;;;;;;-145.63;41.52;39372.34;5125932;28;20034;-67
2023/10/11 08:03:57;;;;;;;5.15;2.38;;;;;;;-145.63;40.96;39305.88;5126215;27;20035;-67
2023/10/11 08:06:26;;;;;;;5.43;2.50;;;;;;;-145.63;40.61;39368.44;5126210;28;20015;-67
2023/10/11 08:09:02;;;;;;;3.60;2.40;;;;;;;-145.63;41.13;39303.91;5126224;28;20091;-67
2023/10/11 08:11:36;;;;;;;4.97;2.85;;;;;;;-145.63;40.36;39262.84;5126390;28;20024;-67
2023/10/11 08:14:14;;;;;;;4.57;2.60;;;;;;;-145.63;40.09;39260.88;5126199;28;20468;-67
2023/10/11 08:16:41;;;;;;;3.60;2.00;;;;;;;-145.63;38.88;39298.03;5114042;27;20020;-67
2023/10/11 08:19:07;;;;;;;2.78;2.13;;;;;;;-145.63;38.84;39292.19;5100144;28;20652;-67
2023/10/11 08:21:33;;;;;;;4.80;3.28;;;;;;;-145.63;37.52;39286.31;5103667;28;20355;-67
2023/10/11 08:23:59;;;;;;;3.58;2.13;;;;;;;-145.63;36.89;39395.84;5091534;28;20032;-67
2023/10/11 08:26:25;;;;;;;5.20;2.17;;;;;;;-145.63;38.52;39301.94;5085212;28;20039;-68
2023/10/11 08:28:51;;;;;;;4.22;2.10;;;;;;;-145.63;37.77;39305.88;5085132;28;20036;-66
2023/10/11 08:31:35;;;;;;;5.93;2.88;;;;;;;-145.63;38.92;39374.31;5103059;28;20316;-67
2023/10/11 08:34:03;;;;;;;4.22;2.10;;;;;;;-145.63;37.31;39372.34;5105438;28;20216;-68
2023/10/11 08:36:33;;;;;;;3.90;2.10;;;;;;;-145.63;36.66;39247.19;5111415;28;20028;-66
2023/10/11 08:39:06;;;;;;;3.30;2.20;;;;;;;-145.63;35.44;39243.28;5109111;28;20039;-67
2023/10/11 08:41:35;;;;;;;5.38;2.80;;;;;;;-145.63;35.11;39258.94;5105359;28;20320;-67
2023/10/11 08:44:15;;;;;;;4.45;2.25;;;;;;;-145.63;34.34;39284.34;5103713;28;20066;-68
2023/10/11 08:46:45;;;;;;;3.42;1.90;;;;;;;-145.63;34.87;39343.03;5104824;28;20028;-66
2023/10/11 08:49:14;;;;;;;2.95;2.10;;;;;;;-145.63;34.57;39286.31;5115671;28;20055;-66
2023/10/11 08:51:43;;;;;;;2.45;2.20;;;;;;;-145.63;34.13;39217.84;5112510;28;20031;-66
2023/10/11 08:54:12;;;;;;;4.93;2.20;;;;;;;-145.63;33.06;38646.84;5104366;28;20020;-67
2023/10/11 08:56:39;;;;;;;4.32;2.10;;;;;;;-145.63;32.19;39219.81;5104608;28;20043;-66
2023/10/11 08:59:06;;;;;;;7.32;2.45;;;;;;;-145.63;32.94;39231.53;5098299;28;20016;-66
2023/10/11 09:01:36;;;;;;;6.55;2.25;;;;;;;-145.63;32.05;39217.84;5104724;28;20131;-68
2023/10/11 09:04:11;;;;;;;6.65;2.50;;;;;;;-145.63;30.95;39186.56;5104734;28;20051;-68
2023/10/11 09:06:41;;;;;;;3.65;2.30;;;;;;;-145.63;31.16;39255.00;5104562;28;20035;-67
2023/10/11 09:09:14;;;;;;;5.43;2.30;;;;;;;-145.63;29.94;39204.16;5105050;28;20016;-66
2023/10/11 09:11:52;;;;;;;3.33;2.28;;;;;;;-145.63;29.31;39239.38;5104611;28;20047;-65
2023/10/11 09:14:22;;;;;;;4.05;2.20;;;;;;;-145.63;30.58;39231.53;5104233;28;20213;-65
2023/10/11 09:16:57;;;;;;;4.68;2.13;;;;;;;-145.63;29.14;39215.91;5104489;28;20034;-66
2023/10/11 09:19:24;;;;;;;3.85;2.17;;;;;;;-145.63;29.88;39233.50;5104196;28;20034;-67
2023/10/11 09:22:04;;;;;;;5.78;2.00;;;;;;;-145.63;29.88;39073.13;5103401;28;20032;-68
2023/10/11 09:24:38;;;;;;;3.20;2.00;;;;;;;-145.63;30.25;39282.41;5104326;28;20148;-66
2023/10/11 09:29:46;;;;;;;3.90;1.90;;;;;;;-145.63;30.52;39290.22;5104300;28;20024;-67
2023/10/11 09:32:27;;;;;;;3.17;2.20;;;;;;;-145.63;31.72;39321.50;5103324;28;20023;-68
2023/10/11 09:34:54;;;;;;;5.17;2.00;;;;;;;-145.63;32.00;39290.22;5094860;28;20024;-65
2023/10/11 09:37:20;;;;;;;2.35;1.80;;;;;;;-145.63;31.65;39329.34;5095411;28;20017;-65
2023/10/11 09:39:51;;;;;;;2.92;1.88;;;;;;;-145.63;31.75;39300.00;5101624;28;20036;-66
2023/10/11 09:42:21;;;;;;;3.00;1.90;;;;;;;-145.63;32.69;39298.03;5091618;28;20037;-66
2023/10/11 09:44:47;;;;;;;4.15;2.20;;;;;;;-145.63;32.89;39339.13;5087063;28;20017;-66
2023/10/11 09:47:16;;;;;;;2.50;1.90;;;;;;;-145.63;32.27;39317.59;5112260;28;20030;-66
2023/10/11 09:49:44;;;;;;;4.93;1.92;;;;;;;-145.63;32.60;39323.47;5107768;28;20020;-66
2023/10/11 09:52:11;;;;;;;3.35;1.70;;;;;;;-145.63;32.05;39321.50;5109319;28;20031;-65
2023/10/11 09:54:39;;;;;;;4.22;1.80;;;;;;;-145.63;32.38;39329.34;5113145;28;20332;-66
2023/10/11 09:57:38;;;;;;;3.30;2.05;;;;;;;-145.63;32.19;39333.25;5105070;28;20362;-66
2023/10/11 10:00:34;;;;;;;4.30;2.08;;;;;;;-145.63;32.49;39337.16;5110125;28;20036;-68
2023/10/11 10:02:59;;;;;;;4.97;1.80;;;;;;;-145.63;33.30;39321.50;5123316;28;20076;-66
2023/10/11 10:05:30;;;;;;;3.50;2.00;;;;;;;-145.63;33.71;39016.44;5114306;28;20099;-66
2023/10/11 10:08:13;;;;;;;5.30;1.83;;;;;;;-145.63;32.91;39329.34;5120505;28;20023;-67
2023/10/11 10:10:52;;;;;;;5.70;2.08;;;;;;;-145.63;32.30;39339.13;5122597;28;20243;-65
2023/10/11 10:13:21;;;;;;;2.25;1.73;;;;;;;-145.63;33.15;39331.28;5098840;28;20028;-66
2023/10/11 10:15:50;;;;;;;2.78;1.70;;;;;;;-145.63;32.47;38725.06;5097533;28;20021;-66
2023/10/11 10:18:17;;;;;;;2.80;1.70;;;;;;;-145.63;32.81;38820.88;5103245;28;20027;-66
2023/10/11 10:20:45;;;;;;;2.42;1.65;;;;;;;-145.63;32.68;39300.00;5083165;28;20028;-66
2023/10/11 10:23:14;;;;;;;2.97;1.80;;;;;;;-145.63;33.64;39329.34;5083508;28;20061;-65
2023/10/11 10:25:46;;;;;;;2.15;1.67;;;;;;;-145.63;32.43;39337.16;5083282;28;20072;-65
2023/10/11 10:28:34;;;;;;;2.47;1.52;;;;;;;-145.63;31.49;39350.84;5083304;28;20352;-65
2023/10/11 10:31:17;;;;;;;4.13;3.35;;;;;;;-145.63;32.96;39327.38;5084162;28;20316;-67
2023/10/11 10:33:50;;;;;;;2.60;2.17;;;;;;;-145.63;32.87;39325.41;5083522;28;20336;-66
2023/10/11 10:36:19;;;;;;;3.75;1.90;;;;;;;-145.63;32.79;39325.41;5102646;28;20336;-66
2023/10/11 10:39:00;;;;;;;4.43;1.83;;;;;;;-145.63;32.32;39337.16;5112204;28;20040;-66
2023/10/11 10:41:33;;;;;;;2.97;1.87;;;;;;;-145.63;33.55;39346.94;5110532;28;20104;-67
2023/10/11 10:44:13;;;;;;;3.72;1.58;;;;;;;-145.63;31.61;39374.31;5112302;28;20384;-66
2023/10/11 10:46:51;;;;;;;2.45;1.75;;;;;;;-145.63;31.42;39344.97;5119802;28;20047;-65
2023/10/11 10:49:18;;;;;;;5.82;1.60;;;;;;;-145.63;31.55;39317.59;5108299;28;20039;-67
2023/10/11 10:51:47;;;;;;;6.07;2.40;;;;;;;-145.63;31.49;39356.72;5112086;28;20024;-68
2023/10/11 10:54:25;;;;;;;5.50;1.83;;;;;;;-145.63;33.16;39321.50;5096496;28;20027;-69
2023/10/11 10:56:54;;;;;;;7.70;3.30;;;;;;;-145.63;32.81;39317.59;5083404;28;20352;-68
2023/10/11 10:59:20;;;;;;;5.38;2.63;;;;;;;-145.63;31.24;39174.84;5081396;28;20356;-68
2023/10/11 11:01:50;;;;;;;19.48;9.02;;;;;;;-145.63;31.31;39343.03;5083056;28;20058;-65
2023/10/11 11:04:22;;;;;;;4.07;1.80;;;;;;;-145.63;30.29;39352.81;5082679;28;20024;-65
2023/10/11 11:06:49;;;;;;;2.78;1.83;;;;;;;-145.63;30.25;39366.50;5084950;28;20024;-66
2023/10/11 11:09:25;;;;;;;3.42;1.92;;;;;;;-145.63;32.00;39360.63;5102985;28;20028;-69
2023/10/11 11:12:04;;;;;;;3.42;1.63;;;;;;;-145.63;30.35;39343.03;5101476;28;20028;-68
2023/10/11 11:14:30;;;;;;;2.70;1.90;;;;;;;-145.63;31.08;39364.53;5099399;28;20243;-68
2023/10/11 11:16:58;;;;;;;4.50;2.10;;;;;;;-145.63;31.50;39344.97;5081686;28;20098;-68
2023/10/11 11:19:27;;;;;;;4.13;1.85;;;;;;;-145.63;31.59;39335.19;5094136;28;20028;-67
2023/10/11 11:22:13;;;;;;;6.13;2.22;;;;;;;-145.63;30.16;39333.25;5097284;28;20032;-68
2023/10/11 11:24:43;;;;;;;6.30;1.90;;;;;;;-145.63;30.60;39321.50;5112163;28;20036;-69
2023/10/11 11:27:18;;;;;;;2.47;1.52;;;;;;;-145.63;29.80;39356.72;5092791;28;20028;-68
2023/10/11 11:29:43;;;;;;;1.70;1.30;;;;;;;-145.63;29.91;39307.81;5086649;28;20051;-69
2023/10/11 11:32:16;;;;;;;2.88;1.40;;;;;;;-145.63;31.28;39372.34;5086032;28;20325;-66
2023/10/11 11:35:02;;;;;;;2.67;1.50;;;;;;;-145.63;31.22;39341.06;5085983;28;20031;-66
2023/10/11 11:37:38;;;;;;;2.55;1.40;;;;;;;-145.63;31.07;39344.97;5105817;28;20031;-67
2023/10/11 11:43:08;;;;;;;4.18;1.88;;;;;;;-145.63;29.97;39339.13;5063816;28;20040;-66
2023/10/11 11:45:37;;;;;;;3.83;1.60;;;;;;;-145.63;30.21;39335.19;5098746;28;20036;-66
2023/10/11 11:48:05;;;;;;;8.23;1.88;;;;;;;-145.63;31.34;39321.50;5107945;28;20035;-66
2023/10/11 11:50:33;;;;;;;2.00;1.65;;;;;;;-145.63;31.76;39341.06;5105743;28;20038;-70
2023/10/11 11:53:00;;;;;;;4.15;1.75;;;;;;;-145.63;30.50;39348.88;5105875;28;20089;-72
2023/10/11 11:55:26;;;;;;;3.08;1.48;;;;;;;-145.63;30.92;39303.91;5105853;28;20019;-72
2023/10/11 11:57:53;;;;;;;3.88;1.90;;;;;;;-145.63;31.01;39333.25;5105959;28;20418;-72
2023/10/11 12:02:58;;;;;;;2.50;1.50;;;;;;;-145.63;30.03;39331.28;5105960;28;20051;-72
2023/10/11 12:05:29;;;;;;;3.38;1.48;;;;;;;-145.63;30.16;39356.72;5105826;28;20024;-69
2023/10/11 12:07:57;;;;;;;2.42;1.70;;;;;;;-145.63;30.76;39329.34;5105912;28;20211;-66
2023/10/11 12:10:24;;;;;;;2.05;1.30;;;;;;;-145.63;31.10;39354.75;5104725;28;20122;-67
2023/10/11 12:12:51;;;;;;;6.15;1.70;;;;;;;-145.63;30.74;39346.94;5105871;28;20320;-68
2023/10/11 12:15:17;;;;;;;4.85;1.70;;;;;;;-145.63;30.23;39348.88;5104517;28;20024;-67
2023/10/11 12:17:47;;;;;;;3.80;1.60;;;;;;;-145.63;30.83;39368.44;5105513;28;20065;-67
2023/10/11 12:20:15;;;;;;;1.40;1.30;;;;;;;-145.63;31.62;39360.63;5105440;28;20061;-67
2023/10/11 12:22:44;;;;;;;4.38;1.95;;;;;;;-145.63;31.63;39335.19;5105556;28;20366;-66
2023/10/11 12:25:13;;;;;;;7.57;1.85;;;;;;;-145.63;32.15;39366.50;5105771;28;20032;-67
2023/10/11 12:27:42;;;;;;;2.55;1.70;;;;;;;-145.63;31.64;39337.16;5105527;28;20032;-68
2023/10/11 12:30:22;;;;;;;3.97;1.77;;;;;;;-145.63;31.21;39368.44;5105620;28;20028;-68
2023/10/11 12:32:49;;;;;;;4.95;1.70;;;;;;;-145.63;31.51;39356.72;5105161;28;20051;-67